メインページ
METAR-TAF:

METAR-TAF

空港 :

アンカレッジ, アラスカ州, アメリカ合衆国

テッド・スティーブンス・アンカレッジ国際空港

緯度: 61-10-28N, 経度: 149-59-46W, 海抜: 44m

現時点の気象観測

当レポートは27分前の22:53(UTC)に作成
南/南東の風 12kt
気温 8°C
湿度 66%
気圧 1019 hPa
視程: 16.1km
高度3500ftの雲は散在している
高度7500ftの千切れ雲あり
高度9000ftの曇り

METAR: PANC 272253Z 15012KT 10SM SCT035 BKN075 OVC090 08/02 A3010 RMK AO2 SLP195 VIRGA OHD AND SW-NE SH DSNT E-SE T00830022

時間: 15:20 (23:20 UTC)

予報

当レポートは2時間37分前の20:43(UTC)に作成
予報は27日の 21時(UTC)から 28日の 24時(UTC)まで有効
変向風 5kt
視程: 10km
高度4000ftの雲は散在している
高度7000ftの千切れ雲あり
近辺でにわか雨

TAF: PANC 272043Z 2721/2824 VRB05KT P6SM VCSH SCT040 BKN070

4,000以上の空港の気象観測と天気予報(METAR報とTAF報)

利用可能な観測所は地図上に黄色い丸と赤い丸で示す。

丸の上にカーソルを重ねると観測所名を参照できる。

次にクリックすると気象観測と天気予報を参照できる。

マップの切り替え:黒色「×」印の緑ボタンをクリックして拡大、「-」印の緑ボタンをクリックして縮小、緑色の三角印をクリックして隣りの地図に切り替え


METAR-TAF: